Terminal Aerodrome Forecast
Issued by NWS Mt. Holly, NJ

Home | Current Version | Previous Version | Text Only | Print | Product List | Glossary On
Versions: 1 2 3 4 5 6 7 8 9 10 11 12 13
598
FTUS41 KPHI 220531
TAFILG
TAF
KILG 220531Z 2206/2306 VRB03KT P6SM BKN200
     FM220900 VRB03KT P6SM BKN100
     FM221400 20006KT P6SM BKN100
     FM222100 20006KT P6SM SCT100
     FM230300 VRB03KT P6SM SCT250
      AMD NOT SKED=

USA.gov is the U.S. government's official web portal to all federal, state and local government web resources and services.